createdAt,value
2019-02-28T00:01:50.123Z,17.83
2019-02-28T00:04:50.327Z,19.47
2019-02-28T00:07:50.550Z,16.83
2019-02-28T00:10:50.706Z,16.37
2019-02-28T00:13:52.333Z,16.33
2019-02-28T00:16:52.882Z,15.93
2019-02-28T00:19:52.193Z,17.33
2019-02-28T00:22:51.849Z,16.43
2019-02-28T00:25:52.252Z,17.93
2019-02-28T00:28:52.187Z,17.07
2019-02-28T00:31:51.729Z,16.63
2019-02-28T00:34:51.053Z,14.87
2019-02-28T00:37:50.283Z,14.77
2019-02-28T00:40:49.598Z,14.60
2019-02-28T00:43:49.583Z,15.37
2019-02-28T00:46:48.592Z,14.93
2019-02-28T00:49:47.589Z,14.87
2019-02-28T00:52:46.796Z,15.17
2019-02-28T00:55:46.248Z,18.20
2019-02-28T00:58:46.099Z,18.07
2019-02-28T01:01:45.988Z,18.07
2019-02-28T01:04:46.678Z,15.03
2019-02-28T01:07:48.158Z,13.73
2019-02-28T01:10:46.802Z,14.47
2019-02-28T01:13:45.883Z,15.83
2019-02-28T01:16:45.010Z,16.97
2019-02-28T01:19:44.529Z,15.07
2019-02-28T01:22:43.812Z,14.77
2019-02-28T01:25:43.189Z,15.17
2019-02-28T01:28:42.810Z,14.03
2019-02-28T01:31:42.608Z,14.20
2019-02-28T01:34:43.105Z,17.60
2019-02-28T01:37:42.407Z,16.23
2019-02-28T01:40:41.575Z,16.60
2019-02-28T01:43:41.102Z,18.97
2019-02-28T01:46:40.493Z,16.33
2019-02-28T01:49:39.847Z,17.63
2019-02-28T01:52:44.524Z,15.80
2019-02-28T01:55:40.183Z,15.83
2019-02-28T01:58:39.283Z,19.77
2019-02-28T02:01:38.439Z,18.03
2019-02-28T02:04:37.773Z,16.80
2019-02-28T02:07:37.090Z,16.67
2019-02-28T02:10:36.240Z,17.07
2019-02-28T02:13:36.852Z,18.87
2019-02-28T02:16:36.847Z,18.77
2019-02-28T02:19:36.038Z,20.13
2019-02-28T02:22:35.212Z,20.53
2019-02-28T02:25:37.299Z,19.40
2019-02-28T02:28:35.477Z,25.33
2019-02-28T02:31:35.410Z,22.97
2019-02-28T02:34:34.739Z,20.07
2019-02-28T02:37:34.208Z,23.43
2019-02-28T02:40:33.416Z,23.77
2019-02-28T02:43:32.599Z,27.07
2019-02-28T02:46:31.669Z,24.20
2019-02-28T02:49:30.744Z,28.10
2019-02-28T02:52:30.528Z,29.13
2019-02-28T02:55:30.046Z,30.07
2019-02-28T02:58:29.453Z,29.63
2019-02-28T03:01:28.674Z,32.63
2019-02-28T03:04:28.123Z,29.83
2019-02-28T03:07:27.206Z,44.60
2019-02-28T03:10:26.349Z,32.97
2019-02-28T03:13:25.799Z,33.13
2019-02-28T03:16:25.318Z,36.43
2019-02-28T03:19:24.710Z,35.07
2019-02-28T03:22:28.272Z,36.03
2019-02-28T03:25:28.108Z,42.67
2019-02-28T03:28:28.083Z,35.83
2019-02-28T03:31:27.170Z,40.23
2019-02-28T03:34:26.446Z,37.30
2019-02-28T03:37:32.769Z,42.00
2019-02-28T03:40:26.915Z,41.97
2019-02-28T03:43:26.992Z,52.10
2019-02-28T03:46:27.081Z,46.30
2019-02-28T03:49:26.290Z,42.03
2019-02-28T03:52:25.445Z,48.07
2019-02-28T03:55:53.346Z,41.97
2019-02-28T03:58:59.462Z,42.17
2019-02-28T04:01:59.172Z,45.60
2019-02-28T04:04:58.235Z,50.27
2019-02-28T04:07:57.304Z,49.23
2019-02-28T04:10:56.376Z,54.57
2019-02-28T04:13:56.938Z,49.77
2019-02-28T04:16:56.417Z,51.40
2019-02-28T04:20:00.090Z,51.57
2019-02-28T04:22:59.917Z,50.00
2019-02-28T04:25:57.946Z,49.50
2019-02-28T04:28:57.850Z,53.20
2019-02-28T04:31:58.017Z,49.23
2019-02-28T04:34:58.343Z,48.50
2019-02-28T04:37:58.363Z,50.63
2019-02-28T04:40:58.866Z,48.73
2019-02-28T04:43:59.037Z,46.53
2019-02-28T04:46:58.097Z,45.30
2019-02-28T04:49:57.737Z,38.90
2019-02-28T04:52:56.908Z,44.97
2019-02-28T04:55:56.973Z,40.20
2019-02-28T04:58:56.443Z,41.33
2019-02-28T05:01:57.544Z,44.47
2019-02-28T05:04:57.639Z,41.67
2019-02-28T05:07:56.939Z,44.30
2019-02-28T05:10:56.818Z,44.57
2019-02-28T05:13:56.256Z,44.67
2019-02-28T05:16:55.454Z,46.20
2019-02-28T05:19:55.229Z,48.10
2019-02-28T05:22:55.076Z,46.40
2019-02-28T05:25:54.249Z,45.53
2019-02-28T05:28:53.598Z,49.50
2019-02-28T05:31:52.818Z,51.43
2019-02-28T05:34:52.113Z,46.73
2019-02-28T05:37:51.506Z,50.13
2019-02-28T05:40:51.077Z,49.40
2019-02-28T05:43:50.332Z,51.43
2019-02-28T05:46:49.820Z,46.80
2019-02-28T05:49:48.942Z,43.33
2019-02-28T05:52:48.158Z,47.73
2019-02-28T05:55:47.643Z,49.20
2019-02-28T05:58:49.304Z,46.73
2019-02-28T06:01:48.021Z,49.70
2019-02-28T06:04:47.529Z,47.87
2019-02-28T06:07:47.267Z,51.80
2019-02-28T06:10:46.465Z,49.73
2019-02-28T06:13:49.555Z,48.80
2019-02-28T06:16:47.782Z,49.90
2019-02-28T06:19:47.001Z,50.60
2019-02-28T06:22:46.192Z,50.20
2019-02-28T06:25:45.323Z,51.60
2019-02-28T06:28:44.496Z,49.97
2019-02-28T06:31:45.482Z,50.57
2019-02-28T06:34:45.137Z,68.50
2019-02-28T06:37:44.507Z,83.83
2019-02-28T06:40:43.622Z,94.77
2019-02-28T06:43:44.294Z,85.70
2019-02-28T06:46:44.027Z,80.37
2019-02-28T06:49:43.073Z,96.60
2019-02-28T06:52:42.261Z,73.30
2019-02-28T06:55:46.413Z,74.63
2019-02-28T06:58:46.803Z,72.23
2019-02-28T07:01:46.023Z,77.63
2019-02-28T07:04:49.153Z,77.57
2019-02-28T07:07:49.084Z,75.33
2019-02-28T07:10:49.329Z,67.50
2019-02-28T07:13:48.957Z,61.27
2019-02-28T07:16:48.932Z,63.03
2019-02-28T07:19:48.334Z,64.73
2019-02-28T07:22:47.507Z,66.70
2019-02-28T07:25:47.366Z,68.60
2019-02-28T07:28:48.001Z,63.97
2019-02-28T07:31:47.097Z,71.93
2019-02-28T07:34:46.400Z,70.30
2019-02-28T07:37:45.679Z,77.10
2019-02-28T07:40:45.703Z,73.47
2019-02-28T07:43:46.109Z,69.27
2019-02-28T07:46:46.348Z,69.37
2019-02-28T07:49:45.666Z,69.43
2019-02-28T07:52:45.056Z,66.87
2019-02-28T07:55:44.258Z,66.73
2019-02-28T07:58:43.686Z,61.83
2019-02-28T08:01:42.765Z,62.90
2019-02-28T08:04:43.609Z,64.00
2019-02-28T08:07:42.777Z,65.60
2019-02-28T08:10:42.857Z,65.03
2019-02-28T08:13:42.194Z,63.67
2019-02-28T08:16:42.021Z,58.77
2019-02-28T08:19:41.113Z,62.73
2019-02-28T08:22:40.262Z,60.90
2019-02-28T08:25:42.554Z,67.17
2019-02-28T08:28:40.652Z,67.30
2019-02-28T08:31:40.519Z,56.77
2019-02-28T08:34:40.518Z,60.13
2019-02-28T08:37:39.911Z,64.93
2019-02-28T08:40:39.939Z,63.30
2019-02-28T08:43:39.963Z,63.07
2019-02-28T08:46:39.230Z,64.03
2019-02-28T08:49:42.302Z,70.47
2019-02-28T08:52:41.035Z,68.83
2019-02-28T08:55:44.220Z,65.10
2019-02-28T08:58:42.737Z,72.97
2019-02-28T09:01:44.185Z,73.10
2019-02-28T09:04:44.877Z,78.87
2019-02-28T09:07:44.047Z,71.97
2019-02-28T09:10:43.740Z,75.13
2019-02-28T09:13:44.202Z,71.80
2019-02-28T09:16:43.305Z,78.30
2019-02-28T09:19:42.326Z,80.93
2019-02-28T09:22:41.575Z,77.97
2019-02-28T09:25:41.549Z,77.70
2019-02-28T09:28:40.887Z,78.77
2019-02-28T09:31:40.171Z,82.93
2019-02-28T09:34:41.245Z,80.17
2019-02-28T09:37:40.735Z,77.17
2019-02-28T09:40:41.235Z,83.87
2019-02-28T09:43:41.316Z,78.83
2019-02-28T09:46:40.604Z,84.83
2019-02-28T09:49:40.595Z,91.17
2019-02-28T09:52:41.616Z,80.93
2019-02-28T09:55:40.980Z,77.67
2019-02-28T09:58:40.337Z,81.93
2019-02-28T10:01:39.598Z,85.10
2019-02-28T10:04:39.510Z,83.80
2019-02-28T10:07:38.726Z,81.53
2019-02-28T10:10:38.615Z,87.33
2019-02-28T10:13:37.865Z,78.30
2019-02-28T10:16:37.535Z,81.73
2019-02-28T10:19:45.610Z,87.10
2019-02-28T10:22:38.641Z,82.13
2019-02-28T10:25:43.369Z,87.13
2019-02-28T10:28:39.027Z,82.33
2019-02-28T10:31:38.722Z,84.53
2019-02-28T10:34:37.812Z,88.37
2019-02-28T10:37:36.811Z,82.03
2019-02-28T10:40:36.222Z,90.67
2019-02-28T10:43:35.307Z,84.27
2019-02-28T10:46:36.051Z,79.60
2019-02-28T10:49:35.753Z,80.77
2019-02-28T10:52:34.951Z,78.03
2019-02-28T10:55:34.328Z,78.23
2019-02-28T10:58:34.455Z,82.90
2019-02-28T11:01:33.697Z,78.30
2019-02-28T11:04:32.957Z,82.77
2019-02-28T11:07:34.218Z,83.70
2019-02-28T11:10:35.529Z,78.00
2019-02-28T11:13:35.266Z,82.40
2019-02-28T11:16:36.071Z,76.57
2019-02-28T11:19:35.640Z,80.37
2019-02-28T11:22:36.493Z,79.77
2019-02-28T11:25:36.367Z,79.57
2019-02-28T11:28:35.780Z,79.97
2019-02-28T11:31:35.825Z,79.37
2019-02-28T11:34:35.181Z,83.52
2019-02-28T11:37:34.386Z,80.90
2019-02-28T11:40:34.087Z,81.57
2019-02-28T11:43:37.366Z,81.17
2019-02-28T11:46:36.635Z,77.23
2019-02-28T11:49:36.106Z,81.13
2019-02-28T11:52:35.232Z,82.10
2019-02-28T11:55:34.532Z,75.90
2019-02-28T11:58:33.741Z,74.62
2019-02-28T12:01:32.980Z,82.05
2019-02-28T12:04:32.128Z,75.25
2019-02-28T12:07:34.599Z,77.95
2019-02-28T12:10:32.502Z,78.20
2019-02-28T12:13:31.615Z,82.33
2019-02-28T12:16:30.986Z,77.27
2019-02-28T12:19:30.070Z,79.37
2019-02-28T12:22:29.296Z,81.50
2019-02-28T12:25:28.811Z,83.10
2019-02-28T12:28:28.236Z,84.45
2019-02-28T12:31:27.460Z,83.43
2019-02-28T12:34:28.755Z,79.58
2019-02-28T12:37:28.597Z,76.05
2019-02-28T12:40:28.638Z,81.72
2019-02-28T12:43:28.549Z,75.67
2019-02-28T12:46:27.974Z,74.10
2019-02-28T12:49:27.687Z,76.75
2019-02-28T12:52:27.466Z,75.75
2019-02-28T12:55:27.095Z,72.95
2019-02-28T12:58:26.225Z,74.75
2019-02-28T13:01:25.361Z,75.65
2019-02-28T13:04:24.429Z,84.47
2019-02-28T13:07:24.431Z,69.15
2019-02-28T13:10:27.135Z,74.77
2019-02-28T13:13:27.468Z,75.10
2019-02-28T13:16:26.305Z,70.80
2019-02-28T13:19:26.281Z,72.08
2019-02-28T13:22:25.602Z,71.22
2019-02-28T13:25:24.929Z,77.27
2019-02-28T13:28:24.050Z,75.35
2019-02-28T13:31:25.532Z,69.35
2019-02-28T13:34:25.082Z,68.50
2019-02-28T13:37:25.684Z,72.60
2019-02-28T13:40:24.872Z,67.15
2019-02-28T13:43:24.057Z,66.60
2019-02-28T13:46:23.230Z,58.63
2019-02-28T13:49:22.337Z,69.32
2019-02-28T13:52:21.440Z,61.15
2019-02-28T13:55:20.638Z,55.67
2019-02-28T13:58:21.605Z,55.40
2019-02-28T14:01:21.029Z,56.23
2019-02-28T14:04:25.892Z,56.88
2019-02-28T14:07:21.645Z,52.45
2019-02-28T14:10:20.863Z,53.58
2019-02-28T14:13:20.861Z,54.63
2019-02-28T14:16:20.166Z,52.85
2019-02-28T14:19:20.322Z,54.65
2019-02-28T14:22:20.370Z,54.03
2019-02-28T14:25:19.946Z,56.35
2019-02-28T14:28:19.822Z,57.20
2019-02-28T14:31:18.934Z,53.98
2019-02-28T14:34:18.267Z,55.35
2019-02-28T14:37:19.558Z,53.80
2019-02-28T14:40:19.284Z,50.35
2019-02-28T14:43:19.556Z,51.90
2019-02-28T14:46:19.773Z,47.88
2019-02-28T14:49:19.369Z,49.60
2019-02-28T14:52:18.479Z,46.92
2019-02-28T14:55:17.788Z,50.88
2019-02-28T14:58:17.146Z,48.65
2019-02-28T15:01:18.049Z,46.98
2019-02-28T15:04:17.348Z,49.10
2019-02-28T15:07:16.625Z,47.75
2019-02-28T15:10:15.724Z,49.75
2019-02-28T15:13:15.088Z,51.30
2019-02-28T15:16:15.251Z,51.48
2019-02-28T15:19:15.185Z,49.95
2019-02-28T15:22:17.626Z,48.58
2019-02-28T15:25:18.562Z,50.23
2019-02-28T15:28:17.401Z,53.60
2019-02-28T15:31:17.319Z,48.92
2019-02-28T15:34:23.837Z,51.35
2019-02-28T15:37:23.765Z,53.58
2019-02-28T15:40:24.732Z,53.87
2019-02-28T15:43:24.841Z,55.40
2019-02-28T15:46:24.171Z,61.15
2019-02-28T15:49:23.402Z,56.88
2019-02-28T15:52:22.685Z,63.87
2019-02-28T15:55:21.896Z,61.53
2019-02-28T15:58:21.259Z,68.78
2019-02-28T16:01:20.247Z,68.10
2019-02-28T16:04:19.550Z,69.05
2019-02-28T16:07:18.816Z,77.55
2019-02-28T16:10:17.938Z,71.20
2019-02-28T16:13:17.376Z,71.45
2019-02-28T16:16:16.767Z,69.32
2019-02-28T16:19:18.828Z,68.15
2019-02-28T16:22:18.153Z,67.78
2019-02-28T16:25:18.432Z,74.87
2019-02-28T16:28:17.563Z,77.35
2019-02-28T16:31:18.739Z,78.07
2019-02-28T16:34:18.103Z,81.40
2019-02-28T16:37:17.493Z,85.53
2019-02-28T16:40:16.629Z,74.03
2019-02-28T16:43:17.467Z,79.30
2019-02-28T16:46:17.011Z,77.03
2019-02-28T16:49:17.066Z,75.87
2019-02-28T16:52:16.226Z,86.10
2019-02-28T16:55:15.509Z,79.97
2019-02-28T16:58:14.469Z,88.83
2019-02-28T17:01:17.428Z,91.33
2019-02-28T17:04:17.186Z,90.33
2019-02-28T17:07:17.200Z,92.27
2019-02-28T17:10:21.971Z,89.40
2019-02-28T17:13:23.130Z,91.30
2019-02-28T17:16:28.186Z,85.43
2019-02-28T17:19:28.531Z,79.83
2019-02-28T17:22:28.540Z,86.30
2019-02-28T17:25:28.708Z,80.90
2019-02-28T17:28:49.925Z,87.37
2019-02-28T17:31:50.361Z,77.63
2019-02-28T17:34:50.450Z,81.73
2019-02-28T17:37:50.501Z,76.43
2019-02-28T17:40:49.613Z,81.60
2019-02-28T17:43:48.992Z,83.00
2019-02-28T17:46:48.219Z,78.87
2019-02-28T17:49:47.474Z,85.33
2019-02-28T17:52:46.872Z,77.13
2019-02-28T17:55:46.223Z,71.33
2019-02-28T17:58:45.374Z,74.20
2019-02-28T18:01:44.710Z,67.90
2019-02-28T18:04:43.696Z,68.27
2019-02-28T18:07:42.888Z,62.47
2019-02-28T18:10:42.953Z,71.30
2019-02-28T18:13:42.969Z,66.73
2019-02-28T18:16:42.782Z,66.83
2019-02-28T18:19:42.841Z,63.47
2019-02-28T18:22:42.780Z,63.80
2019-02-28T18:25:42.755Z,61.83
2019-02-28T18:28:42.711Z,62.23
2019-02-28T18:31:42.024Z,61.60
2019-02-28T18:34:41.150Z,61.73
2019-02-28T18:37:40.550Z,58.13
2019-02-28T18:40:40.032Z,56.37
2019-02-28T18:43:40.457Z,53.77
2019-02-28T18:46:39.753Z,55.77
2019-02-28T18:49:39.420Z,54.27
2019-02-28T18:52:39.360Z,49.73
2019-02-28T18:55:38.663Z,56.67
2019-02-28T18:58:37.972Z,52.13
2019-02-28T19:01:37.269Z,49.70
2019-02-28T19:04:36.524Z,45.87
2019-02-28T19:07:35.845Z,48.90
2019-02-28T19:10:36.104Z,45.60
2019-02-28T19:13:36.160Z,47.77
2019-02-28T19:16:35.422Z,44.80
2019-02-28T19:19:34.776Z,45.43
2019-02-28T19:22:35.468Z,42.77
2019-02-28T19:25:35.308Z,42.20
2019-02-28T19:28:34.566Z,43.83
2019-02-28T19:31:41.023Z,44.33
2019-02-28T19:34:47.304Z,42.63
2019-02-28T19:37:47.121Z,43.17
2019-02-28T19:40:47.416Z,41.90
2019-02-28T19:43:47.561Z,39.67
2019-02-28T19:46:47.400Z,38.70
2019-02-28T19:49:46.686Z,38.03
2019-02-28T19:52:45.946Z,39.53
2019-02-28T19:55:45.117Z,33.93
2019-02-28T19:58:44.361Z,33.40
2019-02-28T20:01:45.438Z,35.87
2019-02-28T20:04:44.853Z,32.20
2019-02-28T20:07:44.911Z,31.87
2019-02-28T20:10:44.154Z,29.97
2019-02-28T20:13:43.237Z,30.60
2019-02-28T20:16:42.623Z,25.33
2019-02-28T20:19:41.865Z,29.97
2019-02-28T20:22:41.207Z,29.67
2019-02-28T20:25:40.465Z,28.90
2019-02-28T20:28:40.260Z,25.57
2019-02-28T20:31:39.524Z,25.50
2019-02-28T20:34:45.877Z,23.37
2019-02-28T20:37:45.450Z,28.13
2019-02-28T20:40:44.744Z,23.10
2019-02-28T20:43:44.031Z,25.67
2019-02-28T20:46:43.300Z,29.20
2019-02-28T20:49:42.479Z,23.53
2019-02-28T20:52:41.602Z,22.87
2019-02-28T20:55:40.898Z,25.23
2019-02-28T20:58:40.207Z,23.70
2019-02-28T21:01:39.459Z,25.77
2019-02-28T21:04:38.715Z,23.33
2019-02-28T21:07:38.162Z,21.83
2019-02-28T21:10:37.397Z,22.80
2019-02-28T21:13:36.493Z,25.43
2019-02-28T21:16:35.835Z,21.90
2019-02-28T21:19:35.027Z,22.30
2019-02-28T21:22:34.326Z,21.40
2019-02-28T21:25:33.703Z,22.97
2019-02-28T21:28:33.748Z,22.53
2019-02-28T21:31:33.117Z,24.97
2019-02-28T21:34:32.408Z,23.90
2019-02-28T21:37:31.502Z,21.40
2019-02-28T21:40:31.075Z,21.93
2019-02-28T21:43:30.249Z,20.53
2019-02-28T21:46:29.944Z,19.47
2019-02-28T21:49:30.132Z,18.87
2019-02-28T21:52:30.314Z,18.37
2019-02-28T21:55:30.656Z,19.90
2019-02-28T21:58:31.344Z,17.60
2019-02-28T22:01:31.353Z,21.53
2019-02-28T22:04:30.640Z,21.40
2019-02-28T22:07:29.739Z,20.90
2019-02-28T22:10:28.871Z,18.63
2019-02-28T22:13:28.128Z,19.73
2019-02-28T22:16:28.301Z,18.23
2019-02-28T22:19:28.230Z,18.17
2019-02-28T22:22:28.124Z,21.57
2019-02-28T22:25:27.399Z,23.40
2019-02-28T22:28:27.290Z,19.30
2019-02-28T22:31:28.539Z,19.07
2019-02-28T22:34:29.884Z,19.50
2019-02-28T22:37:29.185Z,20.87
2019-02-28T22:40:28.253Z,20.83
2019-02-28T22:43:28.265Z,23.67
2019-02-28T22:46:28.198Z,21.40
2019-02-28T22:49:28.250Z,19.33
2019-02-28T22:52:27.433Z,22.10
2019-02-28T22:55:26.529Z,22.70
2019-02-28T22:58:25.875Z,24.97
2019-02-28T23:01:25.503Z,27.20
2019-02-28T23:04:25.564Z,25.43
2019-02-28T23:07:24.954Z,27.27
2019-02-28T23:10:25.078Z,27.93
2019-02-28T23:13:25.246Z,27.50
2019-02-28T23:16:24.282Z,26.97
2019-02-28T23:19:23.640Z,28.43
2019-02-28T23:22:22.757Z,28.33
2019-02-28T23:25:22.089Z,28.20
2019-02-28T23:28:21.289Z,31.40
2019-02-28T23:31:20.578Z,30.87
2019-02-28T23:34:19.808Z,34.60
2019-02-28T23:37:19.087Z,28.87
2019-02-28T23:40:18.391Z,32.53
2019-02-28T23:43:17.847Z,32.20
2019-02-28T23:46:17.257Z,33.40
2019-02-28T23:49:16.405Z,30.13
2019-02-28T23:52:15.682Z,28.87
2019-02-28T23:55:14.903Z,32.40
2019-02-28T23:58:14.256Z,29.93
